Portada
METAR-TAF:

METAR-TAF

Aeropuertos :

Angulema, Francia

latitud: 45-43-46N, longitud: 00-13-08E, altitud: 132 m

Observación

El informe se hizo hace 39 minutos, a las 16:00 UTC
Viento 3 kt con dirección variable
Temperatura 20°C
Humedad 43%
Presión 1020 hPa
Visibilidad 10 km o más
sin nubes por debajo de 1500 m y sin presencia de cumulonimbus.

METAR: LFBU 201600Z AUTO VRB03KT CAVOK 20/07 Q1020 NOSIG

Hora: 18:39 (16:39 UTC)

Pronóstico

El informe se hizo hace 5 horas y 39 minutos, a las 11:00 UTC
Pronóstico válido del 20 a las 12 UTC al 21 a las 12 UTC
Viento 5 kt del sureste
Visibilidad 10 km o más
sin nubes por debajo de 1500 m y sin presencia de cumulonimbus.
Probabilidad 30% :
Temporalmente
del 21 a las 03 UTC al 21 a las 06 UTC
Visibilidad: 4000 m
Niebla baja

TAF: LFBU 201100Z 2012/2112 13005KT CAVOK PROB30 TEMPO 2103/2106 4000 MIFG NSC

Observaciones y pronósticos meteorológicos de más de 4000 aeropuertos (mensajes METAR y TAF).

Los puntos amarillos y rojos representan las estaciones disponibles.

Ponga el ratón en el punto deseado para ver el nombre de la estación.

Haga clic para ver las observaciones y los pronósticos meteorológicos.

Para cambiar el mapa : haga clic en los botones verdes con una cruz de color negro para hacer un zoom, en el botón verde con un guión para alejar o en las flechas verdes para mapas adyacentes.


METAR-TAF: